Time;durP1;ratioP1;P1;durP2;ratioP2;P2;SDS_P1;SDS_P2;PMS_P1;PMS_P2;Temp;Humidity;BMP_temperature;BMP_pressure;BME280_temperature;BME280_humidity;BME280_pressure;Samples;Min_cycle;Max_cycle;Signal;HPM_P1;HPM_P2
2023/03/04 00:02:11;;;;;;;10.07;2.75;;;;;;;8.04;57.00;100629.16;5013265;28;20053;-82
2023/03/04 00:04:37;;;;;;;16.15;2.50;;;;;;;8.05;57.14;100628.25;5013111;28;20068;-80
2023/03/04 00:07:04;;;;;;;12.48;2.35;;;;;;;8.04;57.48;100632.63;5012656;28;20085;-79
2023/03/04 00:09:30;;;;;;;13.40;2.33;;;;;;;8.04;57.11;100634.41;5013605;28;20060;-79
2023/03/04 00:11:57;;;;;;;19.08;3.60;;;;;;;8.04;57.30;100631.78;5012983;28;20544;-79
2023/03/04 00:14:23;;;;;;;18.30;3.03;;;;;;;8.04;57.37;100626.53;5011858;28;20392;-80
2023/03/04 00:16:49;;;;;;;15.40;2.50;;;;;;;8.03;57.10;100633.53;5011153;28;20048;-80
2023/03/04 00:19:16;;;;;;;12.57;2.83;;;;;;;8.02;57.40;100631.81;5013166;28;20053;-81
2023/03/04 00:21:42;;;;;;;14.68;2.40;;;;;;;8.04;57.42;100629.16;5013147;28;20478;-82
2023/03/04 00:24:09;;;;;;;13.88;3.30;;;;;;;8.02;57.62;100634.44;5013105;28;20049;-81
2023/03/04 00:26:35;;;;;;;17.42;2.38;;;;;;;8.03;57.19;100632.66;5011763;28;20553;-80
2023/03/04 00:29:01;;;;;;;11.05;2.45;;;;;;;8.03;57.58;100630.91;5012352;28;20482;-79
2023/03/04 00:31:28;;;;;;;12.45;2.40;;;;;;;8.02;57.69;100631.81;5012581;28;20054;-80
2023/03/04 00:33:54;;;;;;;17.08;2.97;;;;;;;8.03;57.58;100630.03;5012497;28;20411;-79
2023/03/04 00:36:21;;;;;;;13.82;2.72;;;;;;;8.03;57.38;100633.53;5012149;28;20054;-80
2023/03/04 00:38:47;;;;;;;14.70;3.03;;;;;;;8.03;57.68;100622.19;5012161;28;20058;-80
2023/03/04 00:41:13;;;;;;;9.18;2.50;;;;;;;8.04;57.35;100618.66;5011553;28;20100;-81
2023/03/04 00:43:40;;;;;;;13.90;2.70;;;;;;;8.05;57.51;100620.38;5012500;28;20172;-80
2023/03/04 00:46:06;;;;;;;15.15;2.88;;;;;;;8.06;57.58;100622.09;5012412;28;20424;-79
2023/03/04 00:48:33;;;;;;;14.75;3.00;;;;;;;8.07;57.49;100621.16;5012113;28;20077;-81
2023/03/04 00:50:59;;;;;;;15.70;2.50;;;;;;;8.07;57.69;100618.53;5010890;28;20061;-79
2023/03/04 00:53:26;;;;;;;18.17;2.92;;;;;;;8.08;57.48;100612.41;5011339;28;20042;-80
2023/03/04 00:55:52;;;;;;;16.52;3.83;;;;;;;8.07;57.26;100610.69;5012027;28;20100;-80
2023/03/04 00:58:18;;;;;;;10.45;2.40;;;;;;;8.07;57.44;100618.53;5011965;28;20046;-79
2023/03/04 01:00:45;;;;;;;13.15;2.63;;;;;;;8.04;57.39;100609.03;5012631;28;20549;-80
2023/03/04 01:03:11;;;;;;;15.95;3.20;;;;;;;8.05;57.56;100613.38;5012022;28;20050;-82
2023/03/04 01:05:38;;;;;;;13.18;2.67;;;;;;;8.05;57.60;100609.88;5012475;28;20061;-79
2023/03/04 01:10:34;;;;;;;18.75;3.08;;;;;;;8.03;57.33;100609.06;5014314;23;20107;-78
2023/03/04 01:13:01;;;;;;;15.52;3.03;;;;;;;8.04;57.29;100613.44;5012073;28;20058;-81
2023/03/04 01:15:34;;;;;;;16.75;3.17;;;;;;;8.01;57.51;100605.66;5012036;28;20498;-79
2023/03/04 01:18:00;;;;;;;16.13;2.88;;;;;;;8.04;57.45;100608.19;5011907;28;20104;-78
2023/03/04 01:20:29;;;;;;;12.93;2.65;;;;;;;8.02;57.48;100604.72;5012212;28;20054;-80
2023/03/04 01:22:55;;;;;;;16.73;2.67;;;;;;;8.03;57.59;100602.06;5012026;28;20062;-80
2023/03/04 01:25:23;;;;;;;16.38;2.85;;;;;;;8.02;57.26;100599.50;5011743;28;20486;-78
2023/03/04 01:27:50;;;;;;;9.27;2.80;;;;;;;8.03;57.34;100595.94;5011566;28;20053;-81
2023/03/04 01:30:18;;;;;;;14.70;3.20;;;;;;;8.01;57.40;100600.41;5010601;28;20049;-78
2023/03/04 01:32:45;;;;;;;15.23;3.08;;;;;;;8.04;57.66;100597.69;5012041;28;20202;-78
2023/03/04 01:35:13;;;;;;;18.50;3.03;;;;;;;8.02;57.59;100596.88;5011477;28;20053;-80
2023/03/04 01:37:40;;;;;;;11.95;2.80;;;;;;;8.02;57.66;100591.63;5011570;28;20533;-79
2023/03/04 01:40:09;;;;;;;18.30;2.90;;;;;;;8.00;57.24;100588.22;5011234;28;20461;-79
2023/03/04 01:42:36;;;;;;;17.13;2.42;;;;;;;8.01;57.38;100582.06;5011546;28;20498;-78
2023/03/04 01:45:05;;;;;;;12.30;2.42;;;;;;;8.00;57.28;100589.06;5011011;28;20058;-81
2023/03/04 01:47:34;;;;;;;14.90;2.53;;;;;;;8.01;57.19;100582.06;5010441;28;20046;-78
2023/03/04 01:50:10;;;;;;;8.57;2.08;;;;;;;7.98;57.12;100577.78;5011644;28;20077;-80
2023/03/04 01:52:38;;;;;;;12.40;2.55;;;;;;;7.99;57.73;100573.41;5011415;28;20494;-78
2023/03/04 01:55:20;;;;;;;10.73;2.35;;;;;;;7.94;57.23;100573.53;5011049;28;20053;-82
2023/03/04 01:57:48;;;;;;;11.73;2.30;;;;;;;7.95;57.80;100568.25;5009904;28;20565;-78
2023/03/04 02:00:29;;;;;;;12.55;2.30;;;;;;;7.92;57.39;100570.97;5010300;28;20053;-80
2023/03/04 02:03:03;;;;;;;9.90;1.98;;;;;;;7.95;57.80;100573.50;5010166;28;20049;-80
2023/03/04 02:05:29;;;;;;;16.05;2.35;;;;;;;7.95;57.56;100562.13;5010829;28;20100;-80
2023/03/04 02:07:58;;;;;;;15.48;2.20;;;;;;;7.93;57.12;100563.97;5009576;28;20049;-79
2023/03/04 02:10:24;;;;;;;8.73;1.95;;;;;;;7.92;57.54;100563.09;5010775;28;20050;-81
2023/03/04 02:12:54;;;;;;;8.68;1.83;;;;;;;7.89;57.33;100559.72;5011221;28;20487;-79
2023/03/04 02:15:20;;;;;;;10.32;1.85;;;;;;;7.89;57.75;100557.94;5010563;28;20050;-81
2023/03/04 02:17:50;;;;;;;13.80;2.03;;;;;;;7.87;57.51;100559.78;5010742;28;20069;-79
2023/03/04 02:20:44;;;;;;;12.20;1.80;;;;;;;7.87;57.27;100557.16;5011015;28;20057;-82
2023/03/04 02:23:44;;;;;;;10.60;1.90;;;;;;;7.85;57.03;100561.56;5011088;28;20091;-81
2023/03/04 02:26:17;;;;;;;9.27;2.00;;;;;;;7.88;57.21;100552.75;5010721;28;20100;-82
2023/03/04 02:28:47;;;;;;;11.00;1.90;;;;;;;7.88;57.50;100555.38;5010910;28;20049;-79
2023/03/04 02:31:27;;;;;;;12.63;1.98;;;;;;;7.85;56.96;100550.25;5010656;28;20049;-79
2023/03/04 02:33:59;;;;;;;7.45;2.13;;;;;;;7.86;57.21;100541.47;5011022;28;20589;-79
2023/03/04 02:36:26;;;;;;;15.20;2.42;;;;;;;7.87;57.64;100545.78;5011012;28;20449;-78
2023/03/04 02:39:01;;;;;;;5.10;1.58;;;;;;;7.83;57.45;100539.81;5009348;28;20088;-81
2023/03/04 02:41:29;;;;;;;13.60;1.88;;;;;;;7.87;57.71;100543.19;5010912;28;20457;-80
2023/03/04 02:43:57;;;;;;;11.25;2.13;;;;;;;7.86;57.78;100550.19;5010753;28;20530;-81
2023/03/04 02:46:24;;;;;;;11.93;2.50;;;;;;;7.87;57.73;100544.03;5010200;28;20050;-79
2023/03/04 02:48:53;;;;;;;12.57;1.75;;;;;;;7.88;57.74;100539.63;5010300;28;20498;-78
2023/03/04 02:51:19;;;;;;;14.82;1.67;;;;;;;7.89;57.79;100536.13;5012990;28;20133;-79
2023/03/04 02:53:48;;;;;;;13.07;2.50;;;;;;;7.88;57.48;100530.03;5014620;28;20079;-78
2023/03/04 02:59:24;;;;;;;14.38;2.30;;;;;;;7.88;57.50;100530.03;4993514;28;20116;-79
2023/03/04 03:01:51;;;;;;;11.55;2.50;;;;;;;7.88;57.59;100534.41;5009976;28;20061;-81
2023/03/04 03:04:20;;;;;;;13.65;2.20;;;;;;;7.87;57.86;100533.56;4995124;28;20124;-80
2023/03/04 03:06:46;;;;;;;12.27;2.15;;;;;;;7.88;58.00;100529.16;5009321;28;20050;-81
2023/03/04 03:09:13;;;;;;;13.57;1.98;;;;;;;7.89;58.11;100526.50;4995040;28;20089;-80
2023/03/04 03:11:40;;;;;;;13.20;2.63;;;;;;;7.88;57.94;100516.91;4995105;28;20133;-80
2023/03/04 03:14:06;;;;;;;7.18;1.40;;;;;;;7.89;57.99;100516.00;4995106;28;20042;-80
2023/03/04 03:16:33;;;;;;;14.27;2.30;;;;;;;7.91;58.06;100519.44;4994436;28;20057;-80
2023/03/04 03:19:00;;;;;;;9.40;2.03;;;;;;;7.92;58.17;100526.41;4994931;28;20097;-79
2023/03/04 03:21:27;;;;;;;14.57;2.47;;;;;;;7.93;58.22;100511.53;4994821;28;20148;-80
2023/03/04 03:23:53;;;;;;;9.13;1.85;;;;;;;7.91;58.00;100508.97;4994775;28;20058;-80
2023/03/04 03:26:20;;;;;;;11.88;2.00;;;;;;;7.93;57.93;100516.78;4994222;28;20129;-80
2023/03/04 03:28:47;;;;;;;8.50;1.85;;;;;;;7.92;58.09;100509.78;5009091;28;20130;-80
2023/03/04 03:31:13;;;;;;;13.68;1.90;;;;;;;7.91;57.83;100501.09;5009654;28;20133;-79
2023/03/04 03:33:40;;;;;;;10.85;1.85;;;;;;;7.91;57.96;100511.56;4994364;28;20058;-80
2023/03/04 03:36:07;;;;;;;12.38;2.17;;;;;;;7.90;57.89;100509.00;4994271;28;20054;-80
2023/03/04 03:38:34;;;;;;;9.43;1.98;;;;;;;7.88;57.88;100508.19;4993950;28;20046;-80
2023/03/04 03:41:00;;;;;;;6.60;1.92;;;;;;;7.85;57.98;100503.06;5009403;28;20089;-80
2023/03/04 03:43:27;;;;;;;9.35;1.83;;;;;;;7.84;57.89;100498.75;4994460;28;20062;-80
2023/03/04 03:45:53;;;;;;;12.60;1.80;;;;;;;7.82;58.21;100502.25;4993801;28;20050;-80
2023/03/04 03:48:20;;;;;;;12.68;1.60;;;;;;;7.81;57.96;100497.91;4993751;28;20097;-80
2023/03/04 03:50:47;;;;;;;6.18;1.38;;;;;;;7.80;58.00;100496.22;4994255;28;20058;-80
2023/03/04 03:53:13;;;;;;;11.50;2.00;;;;;;;7.80;58.20;100500.59;4994148;28;20129;-81
2023/03/04 03:55:40;;;;;;;11.93;2.38;;;;;;;7.80;58.37;100492.72;4993785;28;20096;-80
2023/03/04 03:58:06;;;;;;;9.77;2.00;;;;;;;7.79;58.19;100493.63;4993893;28;20061;-80
2023/03/04 04:00:33;;;;;;;10.13;1.65;;;;;;;7.79;58.54;100491.88;4993794;28;20054;-80
2023/03/04 04:03:00;;;;;;;6.35;1.27;;;;;;;7.80;58.29;100490.09;4993989;28;20059;-80
2023/03/04 04:05:26;;;;;;;10.82;1.92;;;;;;;7.77;58.43;100480.59;4993975;28;20058;-80
2023/03/04 04:07:53;;;;;;;8.30;1.58;;;;;;;7.78;58.42;100487.53;4992569;28;20138;-80
2023/03/04 04:10:20;;;;;;;11.02;2.22;;;;;;;7.77;58.30;100495.44;4994085;28;20134;-80
2023/03/04 04:12:47;;;;;;;8.50;1.85;;;;;;;7.79;58.69;100491.00;5008797;28;20066;-79
2023/03/04 04:15:13;;;;;;;8.80;1.77;;;;;;;7.75;58.31;100487.66;4993485;28;20050;-81
2023/03/04 04:17:40;;;;;;;7.05;1.88;;;;;;;7.76;58.83;100493.72;4993593;28;20046;-80
2023/03/04 04:20:07;;;;;;;6.97;1.48;;;;;;;7.75;58.80;100492.03;4993531;28;20415;-79
2023/03/04 04:22:34;;;;;;;7.82;1.83;;;;;;;7.75;58.65;100489.41;4993979;28;20062;-79
2023/03/04 04:25:00;;;;;;;9.65;1.85;;;;;;;7.75;58.99;100492.91;4993118;28;20046;-80
2023/03/04 04:27:27;;;;;;;9.13;1.70;;;;;;;7.75;58.86;100482.41;4993194;28;20430;-80
2023/03/04 04:29:53;;;;;;;8.23;1.70;;;;;;;7.75;59.11;100484.16;4993326;28;20059;-80
2023/03/04 04:32:20;;;;;;;7.00;1.38;;;;;;;7.74;58.99;100491.16;4993578;28;20408;-79
2023/03/04 04:34:47;;;;;;;5.82;1.67;;;;;;;7.75;58.89;100494.66;4993265;28;20089;-79
2023/03/04 04:37:13;;;;;;;11.40;1.98;;;;;;;7.74;58.90;100488.53;4993068;28;20073;-79
2023/03/04 04:39:40;;;;;;;10.57;1.80;;;;;;;7.74;59.11;100496.41;4993296;28;20051;-79
2023/03/04 04:42:09;;;;;;;11.10;1.63;;;;;;;7.75;58.96;100489.41;4993347;28;20057;-80
2023/03/04 04:44:37;;;;;;;5.78;1.67;;;;;;;7.74;59.12;100496.41;4993028;28;20499;-80
2023/03/04 04:47:06;;;;;;;5.57;1.20;;;;;;;7.74;59.55;100495.56;4992634;28;20105;-80
2023/03/04 04:49:32;;;;;;;12.13;1.80;;;;;;;7.74;59.45;100490.31;4993130;28;20054;-79
2023/03/04 04:51:59;;;;;;;7.75;1.50;;;;;;;7.75;59.44;100489.41;4993267;28;20457;-80
2023/03/04 04:54:25;;;;;;;8.88;1.73;;;;;;;7.75;59.58;100495.50;4992982;28;20089;-80
2023/03/04 04:56:52;;;;;;;5.60;1.40;;;;;;;7.76;59.48;100491.97;4992439;28;20637;-80
2023/03/04 04:59:19;;;;;;;9.95;2.13;;;;;;;7.78;59.45;100492.78;4993339;28;20149;-81
2023/03/04 05:01:45;;;;;;;9.82;1.55;;;;;;;7.77;59.39;100490.19;4993182;28;20057;-80
2023/03/04 05:04:12;;;;;;;7.93;2.28;;;;;;;7.78;59.39;100489.31;4992994;28;20546;-80
2023/03/04 05:06:39;;;;;;;8.55;1.48;;;;;;;7.78;59.65;100491.94;4992313;28;20058;-80
2023/03/04 05:09:06;;;;;;;8.45;1.35;;;;;;;7.76;59.48;100489.34;4992786;28;20065;-80
2023/03/04 05:11:33;;;;;;;9.63;1.52;;;;;;;7.74;59.52;100485.06;4992624;28;20058;-80
2023/03/04 05:13:59;;;;;;;13.32;1.88;;;;;;;7.73;59.65;100484.22;5007354;28;20364;-80
2023/03/04 05:16:26;;;;;;;9.82;1.75;;;;;;;7.73;59.59;100483.38;4992196;28;20126;-80
2023/03/04 05:18:52;;;;;;;7.55;1.40;;;;;;;7.71;59.27;100482.56;4990967;28;20057;-80
2023/03/04 05:21:19;;;;;;;11.90;2.67;;;;;;;7.69;59.75;100478.22;4992413;28;20137;-79
2023/03/04 05:23:46;;;;;;;7.80;1.45;;;;;;;7.68;59.62;100476.53;4992371;28;20069;-80
2023/03/04 05:26:15;;;;;;;8.20;1.58;;;;;;;7.65;59.58;100476.63;4991630;28;20061;-80
2023/03/04 05:28:42;;;;;;;8.35;1.42;;;;;;;7.65;59.72;100478.38;4991972;28;20507;-80
2023/03/04 05:31:09;;;;;;;4.63;1.20;;;;;;;7.64;59.94;100477.53;4992301;28;20418;-79
2023/03/04 05:33:36;;;;;;;5.63;1.48;;;;;;;7.63;59.62;100483.66;4992507;28;20050;-81
2023/03/04 05:36:04;;;;;;;6.22;1.45;;;;;;;7.62;59.86;100476.72;4991984;28;20050;-81
2023/03/04 05:38:31;;;;;;;9.85;1.75;;;;;;;7.62;59.81;100479.31;4991927;28;20053;-80
2023/03/04 05:41:01;;;;;;;10.98;1.50;;;;;;;7.60;59.60;100470.69;4992044;28;20113;-81
2023/03/04 05:43:28;;;;;;;5.68;1.40;;;;;;;7.61;60.06;100474.13;4992554;28;20545;-82
2023/03/04 05:45:56;;;;;;;6.72;1.20;;;;;;;7.58;59.96;100472.47;4991877;28;20050;-81
2023/03/04 05:48:22;;;;;;;9.85;1.77;;;;;;;7.58;60.02;100474.25;4991820;28;20050;-81
2023/03/04 05:50:54;;;;;;;6.07;1.48;;;;;;;7.54;60.22;100474.34;4992170;28;20058;-81
2023/03/04 05:53:20;;;;;;;13.05;1.67;;;;;;;7.54;60.14;100469.09;4992022;28;20057;-80
2023/03/04 05:55:47;;;;;;;9.38;1.70;;;;;;;7.53;60.35;100475.25;4991924;28;20720;-81
2023/03/04 05:58:15;;;;;;;7.18;1.30;;;;;;;7.51;60.02;100468.38;4991565;28;20050;-80
2023/03/04 06:00:42;;;;;;;8.75;1.52;;;;;;;7.51;60.10;100478.84;4991949;28;20141;-82
2023/03/04 06:03:14;;;;;;;5.18;1.13;;;;;;;7.47;60.66;100482.47;4992048;28;20058;-81
2023/03/04 06:05:41;;;;;;;10.60;1.60;;;;;;;7.48;60.49;100473.69;4991431;28;20056;-81
2023/03/04 06:08:07;;;;;;;10.55;1.80;;;;;;;7.46;60.65;100481.59;4990776;28;20054;-80
2023/03/04 06:10:34;;;;;;;7.90;1.38;;;;;;;7.46;60.69;100472.88;4991873;28;20046;-80
2023/03/04 06:13:00;;;;;;;4.97;1.30;;;;;;;7.47;60.34;100477.22;4991757;28;20064;-80
2023/03/04 06:15:27;;;;;;;15.02;1.92;;;;;;;7.46;60.52;100485.97;4991412;28;20054;-80
2023/03/04 06:17:53;;;;;;;12.55;2.53;;;;;;;7.46;60.44;100475.50;4991273;28;20054;-80
2023/03/04 06:20:20;;;;;;;6.78;1.70;;;;;;;7.46;60.99;100475.50;5006379;28;20050;-80
2023/03/04 06:22:46;;;;;;;9.55;1.60;;;;;;;7.46;60.88;100480.72;4991910;28;20082;-81
2023/03/04 06:25:13;;;;;;;9.27;2.05;;;;;;;7.45;61.03;100479.91;4990347;28;20054;-81
2023/03/04 06:27:40;;;;;;;5.22;1.73;;;;;;;7.43;60.89;100482.56;4991128;28;20056;-80
2023/03/04 06:30:07;;;;;;;5.75;1.30;;;;;;;7.43;61.23;100485.19;4991588;28;20054;-79
2023/03/04 06:32:34;;;;;;;13.43;2.10;;;;;;;7.43;60.98;100481.69;5006296;28;20050;-81
2023/03/04 06:35:00;;;;;;;9.20;1.60;;;;;;;7.43;61.45;100476.44;4991205;28;20113;-82
2023/03/04 06:37:27;;;;;;;7.80;1.70;;;;;;;7.42;61.00;100483.47;4991371;28;20050;-81
2023/03/04 06:39:54;;;;;;;9.73;1.90;;;;;;;7.42;61.46;100488.72;4991597;28;20050;-81
2023/03/04 06:42:21;;;;;;;9.98;2.08;;;;;;;7.43;61.59;100486.94;4991258;28;20050;-81
2023/03/04 06:44:48;;;;;;;7.00;1.52;;;;;;;7.43;61.60;100482.56;5006034;28;20090;-83
2023/03/04 06:47:15;;;;;;;8.48;1.98;;;;;;;7.43;61.67;100479.94;4990913;28;20396;-82
2023/03/04 06:49:42;;;;;;;8.95;1.38;;;;;;;7.43;61.46;100490.41;5006159;28;20060;-81
2023/03/04 06:52:10;;;;;;;9.27;1.40;;;;;;;7.43;61.67;100484.31;4991327;28;20110;-81
2023/03/04 06:54:38;;;;;;;6.32;1.20;;;;;;;7.43;61.61;100490.41;4991302;28;20058;-81
2023/03/04 06:57:06;;;;;;;4.82;1.52;;;;;;;7.43;61.72;100493.03;5005043;28;20129;-82
2023/03/04 06:59:33;;;;;;;9.48;1.48;;;;;;;7.45;61.92;100497.34;4991242;28;20089;-81
2023/03/04 07:01:59;;;;;;;8.13;1.55;;;;;;;7.45;61.70;100498.22;5005980;28;20125;-81
2023/03/04 07:04:26;;;;;;;5.47;1.30;;;;;;;7.45;62.12;100503.47;4991103;28;20454;-81
2023/03/04 07:06:52;;;;;;;8.18;2.22;;;;;;;7.46;61.98;100499.94;4990601;28;20565;-81
2023/03/04 07:09:19;;;;;;;9.07;1.75;;;;;;;7.45;62.04;100495.59;4990959;28;20414;-82
2023/03/04 07:11:45;;;;;;;6.63;1.42;;;;;;;7.47;62.04;100492.94;5006308;28;20097;-82
2023/03/04 07:14:12;;;;;;;7.47;1.77;;;;;;;7.46;62.38;100497.31;4991216;28;20054;-82
2023/03/04 07:16:39;;;;;;;10.23;1.45;;;;;;;7.44;62.39;100493.88;4990193;28;20145;-80
2023/03/04 07:19:06;;;;;;;10.15;1.63;;;;;;;7.44;62.37;100488.63;4991141;28;20086;-82
2023/03/04 07:21:32;;;;;;;11.38;2.00;;;;;;;7.45;62.16;100498.22;4991121;28;20081;-81
2023/03/04 07:23:59;;;;;;;6.63;1.35;;;;;;;7.43;62.83;100493.03;5005822;28;20073;-81
2023/03/04 07:26:26;;;;;;;4.63;1.60;;;;;;;7.43;62.80;100500.91;4990577;28;20042;-81
2023/03/04 07:28:53;;;;;;;14.57;1.75;;;;;;;7.46;62.66;100505.19;4990449;28;20499;-82
2023/03/04 07:31:28;;;;;;;5.40;1.25;;;;;;;7.46;63.16;100504.31;4990832;28;20050;-81
2023/03/04 07:33:58;;;;;;;8.40;1.88;;;;;;;7.48;63.45;100511.22;4990834;28;20439;-81
2023/03/04 07:36:25;;;;;;;9.02;1.67;;;;;;;7.50;63.04;100511.16;5006241;28;20054;-81
2023/03/04 07:38:55;;;;;;;5.93;1.67;;;;;;;7.50;63.31;100514.66;4994203;28;20153;-81
2023/03/04 07:41:24;;;;;;;7.63;1.70;;;;;;;7.50;63.04;100511.16;4994724;28;20167;-81
2023/03/04 07:43:50;;;;;;;11.15;1.70;;;;;;;7.52;63.45;100518.06;4994346;28;20077;-81
2023/03/04 07:46:18;;;;;;;8.40;1.60;;;;;;;7.53;63.46;100514.56;4994177;28;20145;-82
2023/03/04 07:48:44;;;;;;;11.52;2.28;;;;;;;7.55;63.40;100517.09;4994053;28;20050;-81
2023/03/04 07:51:15;;;;;;;5.78;1.83;;;;;;;7.56;63.39;100513.59;4994552;28;20054;-81
2023/03/04 07:53:44;;;;;;;8.40;2.15;;;;;;;7.56;63.73;100518.84;5009423;28;20054;-81
2023/03/04 07:56:17;;;;;;;7.28;2.10;;;;;;;7.55;64.16;100507.50;4992578;28;20125;-81
2023/03/04 07:58:44;;;;;;;6.43;1.43;;;;;;;7.58;63.63;100508.31;4994099;28;20057;-81
2023/03/04 08:01:16;;;;;;;5.72;1.70;;;;;;;7.57;64.14;100507.44;4992995;28;20340;-81
2023/03/04 08:03:43;;;;;;;7.18;1.90;;;;;;;7.60;64.06;100509.97;4994077;28;20077;-80
2023/03/04 08:06:12;;;;;;;6.55;1.80;;;;;;;7.61;64.03;100511.69;4993652;28;20124;-82
2023/03/04 08:08:39;;;;;;;7.63;1.90;;;;;;;7.61;64.20;100498.59;4993498;28;20058;-81
2023/03/04 08:11:08;;;;;;;8.70;2.25;;;;;;;7.62;64.25;100497.66;4994123;28;20514;-81
2023/03/04 08:13:35;;;;;;;8.98;2.00;;;;;;;7.65;64.51;100497.56;4994094;28;20060;-82
2023/03/04 08:16:01;;;;;;;8.23;2.40;;;;;;;7.66;64.33;100496.66;4993748;28;20046;-81
2023/03/04 08:18:28;;;;;;;6.38;2.20;;;;;;;7.68;64.28;100502.72;4993613;28;20411;-81
2023/03/04 08:20:55;;;;;;;5.40;2.05;;;;;;;7.70;64.44;100500.03;5008660;28;20073;-82
2023/03/04 08:23:21;;;;;;;9.10;2.22;;;;;;;7.69;64.68;100499.19;4993821;28;20058;-81
2023/03/04 08:25:48;;;;;;;11.40;2.42;;;;;;;7.71;64.76;100493.91;4993533;28;20050;-81
2023/03/04 08:28:17;;;;;;;9.82;2.70;;;;;;;7.72;64.68;100497.38;4993477;28;20092;-81
2023/03/04 08:30:44;;;;;;;6.20;2.50;;;;;;;7.73;64.64;100496.47;4993403;28;20086;-80
2023/03/04 08:33:11;;;;;;;9.27;2.47;;;;;;;7.73;64.71;100493.84;4993697;28;20141;-81
2023/03/04 08:35:39;;;;;;;9.35;2.78;;;;;;;7.74;65.20;100496.41;4993081;28;20112;-81
2023/03/04 08:38:06;;;;;;;9.93;3.00;;;;;;;7.76;65.17;100488.50;4992881;28;20503;-82
2023/03/04 08:40:32;;;;;;;6.55;2.33;;;;;;;7.79;65.25;100493.63;4992949;28;20491;-81
2023/03/04 08:42:59;;;;;;;8.95;2.33;;;;;;;7.80;65.36;100496.22;4993433;28;20046;-81
2023/03/04 08:45:26;;;;;;;8.00;2.30;;;;;;;7.82;65.30;100496.16;4992662;28;20478;-82
2023/03/04 08:47:52;;;;;;;6.00;1.80;;;;;;;7.82;65.06;100499.63;4992032;28;20450;-81
2023/03/04 08:50:20;;;;;;;9.02;2.35;;;;;;;7.82;65.20;100504.03;4991660;28;20462;-81
2023/03/04 08:52:48;;;;;;;7.80;2.58;;;;;;;7.83;65.04;100503.13;4993056;28;20538;-81
2023/03/04 08:55:15;;;;;;;5.32;2.15;;;;;;;7.81;65.31;100495.31;4992759;28;20077;-81
2023/03/04 09:00:20;;;;;;;6.63;2.28;;;;;;;7.82;65.32;100515.34;4965447;22;20052;-81
2023/03/04 09:02:46;;;;;;;6.38;1.98;;;;;;;7.81;65.13;100511.03;5012825;28;20088;-80
2023/03/04 09:05:13;;;;;;;7.55;1.98;;;;;;;7.81;65.76;100508.41;5011969;28;20050;-79
2023/03/04 09:07:39;;;;;;;6.65;1.70;;;;;;;7.80;65.46;100506.69;5010910;28;20069;-79
2023/03/04 09:10:06;;;;;;;2.50;1.42;;;;;;;7.82;65.77;100507.50;5012637;28;20530;-78
2023/03/04 09:12:33;;;;;;;3.28;1.30;;;;;;;7.84;65.83;100503.97;5012485;28;20085;-79
2023/03/04 09:14:59;;;;;;;6.70;1.80;;;;;;;7.87;66.40;100507.34;5011811;28;20512;-78
2023/03/04 09:17:37;;;;;;;3.65;1.45;;;;;;;7.92;66.65;100510.66;5012296;28;20046;-77
2023/03/04 09:20:08;;;;;;;5.72;1.52;;;;;;;7.99;66.81;100502.59;5011020;28;20573;-81
2023/03/04 09:22:37;;;;;;;2.50;1.58;;;;;;;8.07;67.18;100503.16;5012330;28;20054;-79
2023/03/04 09:25:04;;;;;;;3.33;1.40;;;;;;;8.18;67.50;100494.94;5011833;28;20557;-82
2023/03/04 09:27:34;;;;;;;6.13;1.88;;;;;;;8.30;67.45;100498.91;5011831;28;20057;-82
2023/03/04 09:30:00;;;;;;;7.20;2.20;;;;;;;8.43;67.56;100509.81;5012039;28;20061;-81
2023/03/04 09:32:27;;;;;;;5.30;2.20;;;;;;;8.53;66.97;100503.38;5010908;28;20506;-77
2023/03/04 09:34:54;;;;;;;5.30;2.28;;;;;;;8.63;66.65;100505.66;5011662;28;20057;-78
2023/03/04 09:37:20;;;;;;;5.22;1.98;;;;;;;8.69;65.97;100500.16;5011873;28;20064;-78
2023/03/04 09:39:48;;;;;;;11.43;2.28;;;;;;;8.72;65.95;100490.41;5011777;28;20046;-79
2023/03/04 09:42:45;;;;;;;5.80;1.90;;;;;;;8.70;65.98;100500.09;5010460;28;20085;-82
2023/03/04 09:45:19;;;;;;;6.75;2.00;;;;;;;8.75;65.84;100506.97;5010694;28;20063;-81
2023/03/04 09:47:47;;;;;;;5.60;1.70;;;;;;;8.77;65.25;100502.50;5011626;28;20146;-81
2023/03/04 09:50:14;;;;;;;8.05;2.05;;;;;;;8.78;65.23;100504.22;5011604;28;20487;-82
2023/03/04 09:52:46;;;;;;;5.25;2.30;;;;;;;8.76;65.61;100506.91;5011624;28;20050;-78
2023/03/04 09:55:21;;;;;;;5.47;2.35;;;;;;;8.76;65.64;100509.53;5011258;28;20132;-79
2023/03/04 09:58:25;;;;;;;9.43;2.30;;;;;;;8.74;65.92;100500.84;5009786;28;20080;-82
2023/03/04 10:01:01;;;;;;;7.13;1.90;;;;;;;8.80;66.25;100499.75;5011390;28;20050;-82
2023/03/04 10:03:47;;;;;;;7.28;2.80;;;;;;;8.84;66.50;100502.22;5011608;28;20134;-81
2023/03/04 10:06:19;;;;;;;9.27;2.25;;;;;;;8.92;67.00;100495.81;5011171;28;20125;-80
2023/03/04 10:08:54;;;;;;;5.90;1.47;;;;;;;9.02;66.41;100494.56;5010081;28;20060;-80
2023/03/04 10:11:36;;;;;;;6.65;2.30;;;;;;;9.08;66.20;100496.09;5011224;28;20850;-80
2023/03/04 10:14:31;;;;;;;5.35;1.85;;;;;;;9.16;66.20;100494.00;5011181;28;20521;-81
2023/03/04 10:17:16;;;;;;;5.72;1.90;;;;;;;9.24;65.74;100497.19;5010815;28;20137;-79
2023/03/04 10:19:50;;;;;;;10.05;2.03;;;;;;;9.35;65.70;100490.66;5011095;28;20560;-80
2023/03/04 10:22:28;;;;;;;8.27;2.03;;;;;;;9.37;65.06;100488.81;5011173;28;20119;-79
2023/03/04 10:24:56;;;;;;;12.00;1.70;;;;;;;9.46;65.54;100495.50;5010697;28;20050;-76
2023/03/04 10:27:24;;;;;;;5.45;1.50;;;;;;;9.53;65.44;100491.66;5011025;28;20064;-81
2023/03/04 10:29:51;;;;;;;6.35;1.70;;;;;;;9.58;65.50;100500.25;5011249;28;20057;-79
2023/03/04 10:32:20;;;;;;;6.63;1.85;;;;;;;9.62;65.06;100496.56;5012018;28;20050;-77
2023/03/04 10:34:46;;;;;;;5.18;1.80;;;;;;;9.68;64.95;100492.81;5010697;28;20104;-77
2023/03/04 10:37:13;;;;;;;10.05;2.17;;;;;;;9.72;65.02;100496.19;5005269;28;20081;-78
2023/03/04 10:39:45;;;;;;;9.02;1.88;;;;;;;9.75;64.78;100493.41;5025008;28;20053;-77
2023/03/04 10:42:14;;;;;;;9.20;2.23;;;;;;;9.82;64.67;100492.25;5013647;28;20462;-78
2023/03/04 10:44:50;;;;;;;4.93;1.38;;;;;;;9.86;64.54;100487.69;5009392;28;20385;-80
2023/03/04 10:47:16;;;;;;;8.63;1.83;;;;;;;9.89;64.29;100479.69;5010495;28;20046;-79
2023/03/04 10:49:54;;;;;;;7.13;1.52;;;;;;;9.90;64.55;100476.13;5010629;28;20077;-80
2023/03/04 10:52:45;;;;;;;7.65;1.67;;;;;;;9.96;64.66;100467.13;5010107;28;20061;-78
2023/03/04 10:55:23;;;;;;;6.57;1.70;;;;;;;10.07;65.25;100461.41;5010759;28;20053;-78
2023/03/04 10:57:53;;;;;;;4.50;1.25;;;;;;;10.23;65.96;100470.34;5010239;28;20049;-79
2023/03/04 11:00:28;;;;;;;6.07;1.70;;;;;;;10.42;66.86;100466.88;5011131;28;20073;-79
2023/03/04 11:03:17;;;;;;;6.75;1.70;;;;;;;10.63;65.69;100461.59;5009432;28;20056;-78
2023/03/04 11:05:43;;;;;;;10.63;2.17;;;;;;;10.86;65.54;100459.69;5010384;28;20123;-79
2023/03/04 11:08:18;;;;;;;10.43;2.05;;;;;;;10.99;63.40;100466.06;5008615;28;20046;-79
2023/03/04 11:10:45;;;;;;;8.27;2.10;;;;;;;11.10;62.56;100459.47;5012728;28;20049;-80
2023/03/04 11:13:25;;;;;;;10.43;2.08;;;;;;;11.02;60.52;100444.00;5013116;28;20049;-79
2023/03/04 11:16:04;;;;;;;7.32;2.20;;;;;;;10.93;59.76;100453.22;5014007;28;20049;-81
2023/03/04 11:19:05;;;;;;;12.18;2.65;;;;;;;10.76;59.34;100461.91;5012772;28;20132;-79
2023/03/04 11:21:38;;;;;;;12.07;2.42;;;;;;;10.64;59.79;100466.81;5007779;28;20046;-78
2023/03/04 11:24:13;;;;;;;13.73;2.55;;;;;;;10.48;59.63;100466.66;5034349;28;20092;-78
2023/03/04 11:27:09;;;;;;;10.02;2.10;;;;;;;10.34;59.79;100456.72;5033446;28;20054;-78
2023/03/04 11:29:54;;;;;;;9.27;2.05;;;;;;;10.20;59.96;100454.69;5033111;28;20057;-79
2023/03/04 11:32:26;;;;;;;8.65;2.47;;;;;;;10.12;60.08;100452.41;5034206;28;20132;-79
2023/03/04 11:35:06;;;;;;;12.50;2.83;;;;;;;10.00;59.86;100452.94;5033734;28;20141;-79
2023/03/04 11:37:40;;;;;;;10.82;2.03;;;;;;;9.97;61.25;100458.31;5033743;28;20045;-81
2023/03/04 11:40:27;;;;;;;13.40;2.05;;;;;;;9.88;60.58;100452.53;5034173;28;20059;-78
2023/03/04 11:43:29;;;;;;;15.90;2.35;;;;;;;9.87;60.91;100452.63;5033913;28;20132;-78
2023/03/04 11:46:20;;;;;;;11.07;2.35;;;;;;;9.88;60.92;100449.06;5000765;28;20379;-78
2023/03/04 11:49:13;;;;;;;7.88;1.75;;;;;;;9.86;60.82;100448.25;5031886;28;20486;-78